createdAt,value
2018-04-29T00:00:42.384Z,1007.41
2018-04-29T00:01:42.323Z,1007.37
2018-04-29T00:02:42.152Z,1007.35
2018-04-29T00:03:42.143Z,1007.28
2018-04-29T00:04:41.980Z,1007.28
2018-04-29T00:05:41.943Z,1007.24
2018-04-29T00:06:41.828Z,1007.24
2018-04-29T00:07:41.881Z,1007.30
2018-04-29T00:08:41.716Z,1007.30
2018-04-29T00:09:41.660Z,1007.23
2018-04-29T00:10:41.515Z,1007.23
2018-04-29T00:11:41.468Z,1007.24
2018-04-29T00:12:41.356Z,1007.20
2018-04-29T00:13:41.377Z,1007.22
2018-04-29T00:14:41.222Z,1007.22
2018-04-29T00:15:41.184Z,1007.16
2018-04-29T00:16:41.027Z,1007.20
2018-04-29T00:25:04.072Z,1007.12
2018-04-29T00:26:04.090Z,1007.14
2018-04-29T00:27:03.894Z,1007.06
2018-04-29T00:28:03.887Z,1007.10
2018-04-29T00:29:03.745Z,1007.10
2018-04-29T00:30:03.721Z,1007.05
2018-04-29T00:31:03.575Z,1007.06
2018-04-29T00:32:03.617Z,1007.05
2018-04-29T00:33:03.411Z,1007.03
2018-04-29T00:34:03.468Z,1007.03
2018-04-29T00:35:03.271Z,1007.01
2018-04-29T00:36:03.239Z,1007.01
2018-04-29T00:37:03.102Z,1007.01
2018-04-29T00:38:03.156Z,1007.03
2018-04-29T00:39:02.956Z,1007.00
2018-04-29T00:40:02.979Z,1007.04
2018-04-29T00:41:02.893Z,1007.04
2018-04-29T00:42:02.756Z,1006.96
2018-04-29T00:43:02.628Z,1006.96
2018-04-29T00:44:02.803Z,1006.98
2018-04-29T00:45:02.500Z,1006.99
2018-04-29T00:46:02.475Z,1007.02
2018-04-29T00:47:02.318Z,1007.02
2018-04-29T00:48:02.296Z,1007.03
2018-04-29T00:49:02.152Z,1006.99
2018-04-29T00:50:02.138Z,1006.97
2018-04-29T00:51:02.002Z,1007.02
2018-04-29T00:52:02.026Z,1007.00
2018-04-29T00:53:01.835Z,1007.06
2018-04-29T00:54:01.833Z,1007.08
2018-04-29T00:55:01.722Z,1007.12
2018-04-29T00:56:01.627Z,1007.13
2018-04-29T00:57:01.522Z,1007.14
2018-04-29T00:58:01.541Z,1007.11
2018-04-29T00:59:01.373Z,1007.12
2018-04-29T01:00:01.349Z,1007.07
2018-04-29T01:01:01.330Z,1007.03
2018-04-29T01:02:01.155Z,1007.00
2018-04-29T01:03:01.041Z,1006.99
2018-04-29T01:04:01.067Z,1006.99
2018-04-29T01:05:00.881Z,1006.96
2018-04-29T01:06:01.016Z,1006.93
2018-04-29T01:07:00.720Z,1006.86
2018-04-29T01:08:00.682Z,1006.86
2018-04-29T01:09:00.566Z,1006.88
2018-04-29T01:10:00.583Z,1006.94
2018-04-29T01:11:00.420Z,1006.92
2018-04-29T01:13:42.660Z,1006.90
2018-04-29T01:16:28.671Z,1006.86
2018-04-29T01:17:28.624Z,1006.84
2018-04-29T01:18:28.478Z,1006.79
2018-04-29T01:19:28.502Z,1006.76
2018-04-29T01:42:04.429Z,1006.75
2018-04-29T01:43:04.261Z,1006.78
2018-04-29T01:45:46.154Z,1006.81
2018-04-29T01:46:48.048Z,1006.79
2018-04-29T01:47:46.007Z,1006.81
2018-04-29T01:48:49.083Z,1006.78
2018-04-29T01:49:45.866Z,1006.79
2018-04-29T01:52:31.632Z,1006.78
2018-04-29T01:53:31.597Z,1006.80
2018-04-29T01:54:31.493Z,1006.74
2018-04-29T01:55:31.506Z,1006.74
2018-04-29T01:56:31.334Z,1006.67
2018-04-29T01:57:31.347Z,1006.63
2018-04-29T01:58:31.186Z,1006.64
2018-04-29T01:59:31.144Z,1006.65
2018-04-29T02:00:31.010Z,1006.60
2018-04-29T02:01:31.033Z,1006.64
2018-04-29T02:02:30.833Z,1006.61
2018-04-29T02:03:30.878Z,1006.59
2018-04-29T02:04:30.698Z,1006.59
2018-04-29T02:05:30.650Z,1006.62
2018-04-29T02:06:30.551Z,1006.62
2018-04-29T02:07:30.558Z,1006.60
2018-04-29T02:08:30.374Z,1006.54
2018-04-29T02:09:30.371Z,1006.53
2018-04-29T02:10:30.211Z,1006.54
2018-04-29T02:11:30.177Z,1006.53
2018-04-29T02:12:30.042Z,1006.51
2018-04-29T02:13:31.048Z,1006.47
2018-04-29T02:14:29.890Z,1006.48
2018-04-29T02:15:29.899Z,1006.49
2018-04-29T02:16:29.731Z,1006.49
2018-04-29T02:17:29.702Z,1006.52
2018-04-29T02:18:29.587Z,1006.56
2018-04-29T02:19:29.528Z,1006.52
2018-04-29T02:20:29.404Z,1006.45
2018-04-29T02:21:29.428Z,1006.40
2018-04-29T02:22:29.233Z,1006.39
2018-04-29T02:23:29.235Z,1006.38
2018-04-29T02:24:29.099Z,1006.32
2018-04-29T02:25:29.041Z,1006.42
2018-04-29T02:26:28.929Z,1006.36
2018-04-29T02:27:28.967Z,1006.31
2018-04-29T02:28:28.759Z,1006.24
2018-04-29T02:29:28.795Z,1006.20
2018-04-29T02:30:28.599Z,1006.16
2018-04-29T02:31:28.623Z,1006.16
2018-04-29T02:32:28.427Z,1006.15
2018-04-29T02:33:28.377Z,1006.15
2018-04-29T02:34:28.284Z,1006.17
2018-04-29T02:35:28.328Z,1006.15
2018-04-29T02:36:28.110Z,1006.16
2018-04-29T02:37:28.100Z,1006.22
2018-04-29T02:38:27.948Z,1006.22
2018-04-29T02:39:27.910Z,1006.25
2018-04-29T02:40:27.805Z,1006.24
2018-04-29T02:43:09.654Z,1006.23
2018-04-29T02:44:09.648Z,1006.29
2018-04-29T02:45:09.490Z,1006.25
2018-04-29T02:46:09.526Z,1006.25
2018-04-29T02:47:09.333Z,1006.24
2018-04-29T02:48:09.370Z,1006.28
2018-04-29T02:49:09.189Z,1006.30
2018-04-29T02:50:09.140Z,1006.36
2018-04-29T02:51:09.008Z,1006.40
2018-04-29T02:53:51.203Z,1006.36
2018-04-29T02:55:14.770Z,1006.37
2018-04-29T02:56:12.052Z,1006.33
2018-04-29T02:56:50.919Z,1006.29
2018-04-29T02:59:37.171Z,1006.22
2018-04-29T03:00:37.206Z,1006.20
2018-04-29T03:01:37.007Z,1006.14
2018-04-29T03:02:36.968Z,1006.18
2018-04-29T03:03:36.835Z,1006.13
2018-04-29T03:04:36.884Z,1006.10
2018-04-29T03:22:12.680Z,1005.98
2018-04-29T03:27:56.733Z,1005.72
2018-04-29T03:30:38.661Z,1005.66
2018-04-29T03:31:38.723Z,1005.65
2018-04-29T03:32:38.495Z,1005.64
2018-04-29T03:35:20.661Z,1005.59
2018-04-29T03:36:20.654Z,1005.62
2018-04-29T03:37:20.522Z,1005.63
2018-04-29T03:38:20.559Z,1005.65
2018-04-29T03:39:20.337Z,1005.68
2018-04-29T03:42:02.179Z,1005.77
2018-04-29T03:43:02.238Z,1005.78
2018-04-29T03:44:02.007Z,1005.81
2018-04-29T04:11:44.208Z,1005.69
2018-04-29T04:12:44.073Z,1005.68
2018-04-29T04:13:44.139Z,1005.66
2018-04-29T04:14:43.935Z,1005.70
2018-04-29T04:15:43.911Z,1005.69
2018-04-29T04:16:43.772Z,1005.67
2018-04-29T04:17:43.732Z,1005.65
2018-04-29T04:18:43.610Z,1005.65
2018-04-29T04:19:43.661Z,1005.62
2018-04-29T04:20:43.437Z,1005.58
2018-04-29T04:21:43.425Z,1005.62
2018-04-29T04:22:43.307Z,1005.60
2018-04-29T04:25:25.197Z,1005.57
2018-04-29T04:26:25.132Z,1005.53
2018-04-29T04:27:24.998Z,1005.56
2018-04-29T04:28:24.979Z,1005.51
2018-04-29T04:29:24.851Z,1005.55
2018-04-29T04:30:24.845Z,1005.56
2018-04-29T04:31:24.681Z,1005.61
2018-04-29T04:32:24.659Z,1005.60
2018-04-29T04:33:24.547Z,1005.59
2018-04-29T04:34:24.490Z,1005.63
2018-04-29T04:35:24.379Z,1005.64
2018-04-29T04:36:24.387Z,1005.65
2018-04-29T04:37:24.198Z,1005.69
2018-04-29T04:38:24.193Z,1005.70
2018-04-29T04:39:24.246Z,1005.73
2018-04-29T04:40:23.993Z,1005.67
2018-04-29T04:41:23.902Z,1005.60
2018-04-29T04:44:06.192Z,1005.64
2018-04-29T04:45:06.208Z,1005.58
2018-04-29T04:46:06.024Z,1005.56
2018-04-29T04:48:48.182Z,1005.47
2018-04-29T04:49:48.166Z,1005.53
2018-04-29T04:50:48.006Z,1005.53
2018-04-29T04:51:48.031Z,1005.57
2018-04-29T04:54:35.696Z,1005.76
2018-04-29T04:55:35.672Z,1005.74
2018-04-29T04:56:35.532Z,1005.75
2018-04-29T04:57:35.480Z,1005.78
2018-04-29T04:58:35.346Z,1005.78
2018-04-29T05:01:17.192Z,1005.75
2018-04-29T05:02:17.179Z,1005.79
2018-04-29T05:03:17.010Z,1005.77
2018-04-29T05:29:39.005Z,1005.93
2018-04-29T05:30:38.783Z,1005.91
2018-04-29T05:31:38.773Z,1005.84
2018-04-29T05:32:38.646Z,1005.88
2018-04-29T05:33:38.584Z,1005.85
2018-04-29T05:34:38.467Z,1005.80
2018-04-29T05:35:38.515Z,1005.73
2018-04-29T05:36:38.328Z,1005.71
2018-04-29T05:37:38.340Z,1005.70
2018-04-29T05:38:38.144Z,1005.67
2018-04-29T05:41:20.176Z,1005.62
2018-04-29T05:42:20.252Z,1005.57
2018-04-29T05:43:20.020Z,1005.52
2018-04-29T05:44:20.024Z,1005.49
2018-04-29T05:45:19.858Z,1005.44
2018-04-29T05:46:19.827Z,1005.39
2018-04-29T05:47:19.727Z,1005.36
2018-04-29T05:49:06.760Z,1005.39
2018-04-29T05:49:19.639Z,1005.28
2018-04-29T05:50:19.465Z,1005.34
2018-04-29T05:51:19.466Z,1005.36
2018-04-29T05:52:19.318Z,1005.40
2018-04-29T05:53:19.292Z,1005.37
2018-04-29T05:54:19.140Z,1005.35
2018-04-29T05:55:19.181Z,1005.27
2018-04-29T05:56:18.987Z,1005.26
2018-04-29T05:59:01.213Z,1005.20
2018-04-29T06:00:01.186Z,1005.21
2018-04-29T06:01:01.018Z,1005.17
2018-04-29T06:02:00.989Z,1005.19
2018-04-29T06:03:00.900Z,1005.23
2018-04-29T06:04:00.903Z,1005.42
2018-04-29T06:05:00.705Z,1005.32
2018-04-29T06:07:42.710Z,1005.36
2018-04-29T06:08:42.735Z,1005.34
2018-04-29T06:09:42.537Z,1005.32
2018-04-29T06:10:42.522Z,1005.29
2018-04-29T06:11:42.374Z,1005.23
2018-04-29T06:12:42.330Z,1005.18
2018-04-29T06:13:42.230Z,1005.14
2018-04-29T06:14:42.133Z,1005.11
2018-04-29T06:15:42.044Z,1005.13
2018-04-29T06:16:42.035Z,1005.14
2018-04-29T06:17:41.935Z,1005.16
2018-04-29T06:18:42.852Z,1005.19
2018-04-29T06:19:41.740Z,1005.20
2018-04-29T06:20:41.766Z,1005.19
2018-04-29T06:21:41.574Z,1005.15
2018-04-29T06:22:41.573Z,1005.09
2018-04-29T06:23:41.453Z,1005.03
2018-04-29T06:26:23.695Z,1004.86
2018-04-29T06:27:23.676Z,1004.83
2018-04-29T06:28:23.578Z,1004.84
2018-04-29T06:29:23.509Z,1004.71
2018-04-29T06:30:23.372Z,1004.71
2018-04-29T06:31:23.395Z,1004.70
2018-04-29T06:32:23.210Z,1004.72
2018-04-29T06:33:23.204Z,1004.75
2018-04-29T06:34:23.078Z,1004.82
2018-04-29T06:35:23.023Z,1004.86
2018-04-29T06:36:22.924Z,1004.93
2018-04-29T06:37:22.923Z,1004.96
2018-04-29T06:38:22.732Z,1004.94
2018-04-29T06:39:23.800Z,1004.92
2018-04-29T06:40:22.574Z,1004.97
2018-04-29T06:43:04.705Z,1005.00
2018-04-29T06:44:04.678Z,1005.00
2018-04-29T06:45:04.569Z,1005.02
2018-04-29T06:46:04.592Z,1005.01
2018-04-29T06:47:04.380Z,1005.01
2018-04-29T06:48:04.354Z,1005.03
2018-04-29T06:49:04.254Z,1005.02
2018-04-29T06:50:04.173Z,1005.01
2018-04-29T06:51:04.092Z,1005.07
2018-04-29T06:52:04.080Z,1005.10
2018-04-29T06:53:03.894Z,1005.18
2018-04-29T06:54:03.906Z,1005.26
2018-04-29T06:55:03.760Z,1005.32
2018-04-29T06:56:03.744Z,1005.40
2018-04-29T06:57:03.589Z,1005.43
2018-04-29T06:58:03.620Z,1005.48
2018-04-29T06:59:03.436Z,1005.51
2018-04-29T07:00:03.417Z,1005.64
2018-04-29T07:01:03.301Z,1005.71
2018-04-29T07:03:45.205Z,1005.74
2018-04-29T07:04:45.248Z,1005.75
2018-04-29T07:05:45.100Z,1005.72
2018-04-29T07:06:45.040Z,1005.64
2018-04-29T07:07:44.879Z,1005.62
2018-04-29T07:08:44.844Z,1005.55
2018-04-29T07:09:44.725Z,1005.53
2018-04-29T07:10:45.731Z,1005.54
2018-04-29T07:11:44.594Z,1005.53
2018-04-29T07:12:44.557Z,1005.48
2018-04-29T07:13:44.437Z,1005.42
2018-04-29T07:14:44.367Z,1005.34
2018-04-29T07:15:44.249Z,1005.33
2018-04-29T07:16:44.314Z,1005.35
2018-04-29T07:17:44.095Z,1005.27
2018-04-29T07:18:44.091Z,1005.29
2018-04-29T07:19:43.940Z,1005.29
2018-04-29T07:20:43.900Z,1005.39
2018-04-29T07:21:43.822Z,1005.40
2018-04-29T07:22:43.858Z,1005.38
2018-04-29T07:23:43.649Z,1005.32
2018-04-29T07:24:43.625Z,1005.37
2018-04-29T07:25:43.459Z,1005.36
2018-04-29T07:26:43.477Z,1005.38
2018-04-29T07:27:43.300Z,1005.43
2018-04-29T07:28:43.351Z,1005.43
2018-04-29T07:29:43.155Z,1005.39
2018-04-29T07:30:43.137Z,1005.32
2018-04-29T07:31:42.993Z,1005.25
2018-04-29T07:32:42.949Z,1005.24
2018-04-29T07:33:42.819Z,1005.25
2018-04-29T07:34:42.879Z,1005.25
2018-04-29T07:35:42.662Z,1005.26
2018-04-29T07:36:42.726Z,1005.25
2018-04-29T07:37:42.514Z,1005.22
2018-04-29T07:38:42.534Z,1005.19
2018-04-29T07:39:42.368Z,1005.13
2018-04-29T07:42:24.270Z,1005.19
2018-04-29T07:45:06.223Z,1005.18
2018-04-29T07:46:06.193Z,1005.16
2018-04-29T07:47:06.104Z,1005.19
2018-04-29T07:49:15.807Z,1005.20
2018-04-29T07:49:16.336Z,1005.27
2018-04-29T07:50:16.340Z,1005.34
2018-04-29T07:51:16.190Z,1005.45
2018-04-29T07:52:16.337Z,1005.33
2018-04-29T07:53:16.022Z,1005.24
2018-04-29T07:54:17.038Z,1005.23
2018-04-29T07:55:15.873Z,1005.16
2018-04-29T07:57:57.742Z,1005.02
2018-04-29T07:58:57.751Z,1005.05
2018-04-29T07:59:57.573Z,1005.02
2018-04-29T08:00:57.583Z,1005.03
2018-04-29T08:01:57.445Z,1005.01
2018-04-29T08:02:58.453Z,1005.01
2018-04-29T08:03:57.245Z,1005.06
2018-04-29T08:04:57.170Z,1005.04
2018-04-29T08:05:57.090Z,1005.07
2018-04-29T08:06:57.097Z,1005.07
2018-04-29T08:07:56.945Z,1005.06
2018-04-29T08:08:56.927Z,1005.03
2018-04-29T08:09:56.772Z,1004.97
2018-04-29T08:10:56.831Z,1004.92
2018-04-29T08:11:56.616Z,1004.85
2018-04-29T08:12:57.596Z,1004.78
2018-04-29T08:13:56.481Z,1004.78
2018-04-29T08:16:38.732Z,1004.78
2018-04-29T08:19:16.809Z,1004.78
2018-04-29T08:19:17.362Z,1004.89
2018-04-29T08:20:17.367Z,1004.87
2018-04-29T08:21:17.161Z,1004.90
2018-04-29T08:22:17.093Z,1004.99
2018-04-29T08:23:17.033Z,1005.09
2018-04-29T08:24:16.962Z,1005.09
2018-04-29T08:25:16.867Z,1005.15
2018-04-29T08:27:58.771Z,1005.11
2018-04-29T08:28:58.832Z,1005.10
2018-04-29T08:29:58.707Z,1005.03
2018-04-29T08:30:58.597Z,1005.08
2018-04-29T08:31:58.425Z,1005.04
2018-04-29T08:34:40.247Z,1004.99
2018-04-29T08:35:40.241Z,1004.95
2018-04-29T08:36:40.091Z,1004.98
2018-04-29T08:37:40.113Z,1005.04
2018-04-29T08:38:39.912Z,1005.17
2018-04-29T08:39:39.911Z,1005.27
2018-04-29T08:40:39.777Z,1005.35
2018-04-29T08:41:39.722Z,1005.47
2018-04-29T08:42:39.599Z,1005.56
2018-04-29T08:43:39.627Z,1005.58
2018-04-29T08:44:39.476Z,1005.51
2018-04-29T08:47:21.734Z,1005.08
2018-04-29T08:48:21.664Z,1004.93
2018-04-29T08:49:21.717Z,1004.87
2018-04-29T08:50:21.517Z,1004.85
2018-04-29T08:51:21.438Z,1004.83
2018-04-29T08:52:21.357Z,1004.81
2018-04-29T08:53:21.254Z,1004.80
2018-04-29T08:54:21.322Z,1004.79
2018-04-29T08:55:21.115Z,1004.77
2018-04-29T08:56:21.097Z,1004.94
2018-04-29T08:57:20.962Z,1005.03
2018-04-29T08:58:20.933Z,1005.01
2018-04-29T08:59:20.794Z,1004.97
2018-04-29T09:00:20.838Z,1004.96
2018-04-29T09:01:20.628Z,1004.99
2018-04-29T09:02:21.699Z,1004.99
2018-04-29T09:03:20.560Z,1005.04
2018-04-29T09:04:20.409Z,1005.08
2018-04-29T09:05:20.332Z,1005.14
2018-04-29T09:08:02.241Z,1005.12
2018-04-29T09:10:44.295Z,1004.92
2018-04-29T09:11:44.164Z,1004.96
2018-04-29T09:12:44.107Z,1004.99
2018-04-29T09:13:44.040Z,1005.00
2018-04-29T09:14:43.924Z,1004.91
2018-04-29T09:15:43.955Z,1004.89
2018-04-29T09:16:43.809Z,1004.90
2018-04-29T09:17:43.760Z,1004.84
2018-04-29T09:18:43.624Z,1004.79
2018-04-29T09:19:43.559Z,1004.72
2018-04-29T09:20:43.468Z,1004.66
2018-04-29T09:21:43.432Z,1004.60
2018-04-29T09:22:43.299Z,1004.55
2018-04-29T09:23:43.298Z,1004.49
2018-04-29T09:24:43.134Z,1004.57
2018-04-29T09:25:43.087Z,1004.59
2018-04-29T09:26:43.033Z,1005.02
2018-04-29T09:27:43.004Z,1005.11
2018-04-29T09:28:42.815Z,1005.06
2018-04-29T09:31:24.772Z,1005.18
2018-04-29T09:32:24.715Z,1005.19
2018-04-29T09:33:24.597Z,1005.23
2018-04-29T09:34:24.608Z,1005.32
2018-04-29T09:35:24.438Z,1004.79
2018-04-29T09:36:24.423Z,1004.61
2018-04-29T09:37:24.317Z,1004.62
2018-04-29T09:38:24.238Z,1004.91
2018-04-29T09:39:24.134Z,1004.51
2018-04-29T09:40:24.221Z,1005.21
2018-04-29T09:41:24.016Z,1004.62
2018-04-29T09:44:06.264Z,1004.51
2018-04-29T09:45:06.256Z,1004.54
2018-04-29T09:46:06.120Z,1004.50
2018-04-29T09:47:06.079Z,1004.51
2018-04-29T09:48:05.996Z,1004.56
2018-04-29T09:49:05.870Z,1004.59
2018-04-29T09:50:05.793Z,1004.73
2018-04-29T09:51:05.801Z,1004.55
2018-04-29T09:52:05.671Z,1004.50
2018-04-29T09:53:05.659Z,1004.51
2018-04-29T09:54:05.502Z,1004.52
2018-04-29T09:55:05.547Z,1004.61
2018-04-29T09:56:05.345Z,1004.50
2018-04-29T09:57:05.329Z,1004.46
2018-04-29T09:58:05.215Z,1004.48
2018-04-29T09:59:05.237Z,1004.47
2018-04-29T10:00:05.069Z,1004.76
2018-04-29T10:01:05.315Z,1004.90
2018-04-29T10:02:04.902Z,1005.00
2018-04-29T10:03:04.970Z,1004.96
2018-04-29T10:04:04.766Z,1004.92
2018-04-29T10:05:04.741Z,1004.90
2018-04-29T10:06:04.605Z,1004.92
2018-04-29T10:07:04.549Z,1004.81
2018-04-29T10:08:04.454Z,1004.58
2018-04-29T10:09:04.538Z,1004.54
2018-04-29T10:10:04.304Z,1004.21
2018-04-29T10:11:04.361Z,1004.64
2018-04-29T10:12:04.161Z,1004.14
2018-04-29T10:13:04.199Z,1004.13
2018-04-29T10:14:04.052Z,1004.09
2018-04-29T10:16:46.287Z,1003.86
2018-04-29T10:19:28.335Z,1003.92
2018-04-29T10:20:28.204Z,1003.77
2018-04-29T10:21:28.115Z,1003.94
2018-04-29T10:22:28.113Z,1003.97
2018-04-29T10:23:28.008Z,1003.98
2018-04-29T10:24:27.962Z,1003.84
2018-04-29T10:25:27.837Z,1003.69
2018-04-29T10:26:28.041Z,1003.68
2018-04-29T10:27:27.687Z,1003.69
2018-04-29T10:30:09.808Z,1003.76
2018-04-29T10:32:51.774Z,1003.64
2018-04-29T10:33:51.837Z,1003.58
2018-04-29T10:34:51.679Z,1003.54
2018-04-29T10:35:51.690Z,1003.48
2018-04-29T10:36:51.480Z,1003.45
2018-04-29T10:39:33.761Z,1003.40
2018-04-29T10:40:33.886Z,1003.35
2018-04-29T10:41:33.612Z,1003.31
2018-04-29T10:42:33.676Z,1003.20
2018-04-29T10:43:33.477Z,1003.12
2018-04-29T10:44:33.406Z,1003.14
2018-04-29T10:45:33.355Z,1003.15
2018-04-29T10:46:33.283Z,1003.06
2018-04-29T10:47:33.180Z,1003.07
2018-04-29T10:48:33.184Z,1003.05
2018-04-29T10:49:33.024Z,1003.00
2018-04-29T10:50:33.031Z,1002.95
2018-04-29T10:51:32.894Z,1002.96
2018-04-29T10:54:14.795Z,1002.90
2018-04-29T10:55:14.714Z,1002.89
2018-04-29T10:56:14.650Z,1002.88
2018-04-29T10:57:14.563Z,1002.88
2018-04-29T10:58:14.476Z,1002.92
2018-04-29T10:59:14.419Z,1002.91
2018-04-29T11:00:14.332Z,1002.88
2018-04-29T11:01:14.368Z,1002.95
2018-04-29T11:02:14.178Z,1002.91
2018-04-29T11:03:14.128Z,1003.00
2018-04-29T11:04:14.124Z,1003.01
2018-04-29T11:05:14.107Z,1002.98
2018-04-29T11:06:13.925Z,1003.08
2018-04-29T11:07:14.920Z,1003.09
2018-04-29T11:08:13.705Z,1002.91
2018-04-29T11:09:13.768Z,1002.88
2018-04-29T11:10:13.571Z,1002.85
2018-04-29T11:11:13.577Z,1002.80
2018-04-29T11:12:13.431Z,1002.79
2018-04-29T11:13:13.399Z,1002.82
2018-04-29T11:14:13.288Z,1002.84
2018-04-29T11:15:13.309Z,1002.79
2018-04-29T11:16:13.108Z,1002.76
2018-04-29T11:17:13.160Z,1002.79
2018-04-29T11:18:12.971Z,1002.82
2018-04-29T11:20:54.808Z,1002.87
2018-04-29T11:21:54.732Z,1002.95
2018-04-29T11:22:54.669Z,1003.02
2018-04-29T11:23:54.561Z,1003.09
2018-04-29T11:24:54.483Z,1002.92
2018-04-29T11:25:54.447Z,1003.02
2018-04-29T11:26:54.346Z,1003.02
2018-04-29T11:27:54.368Z,1002.92
2018-04-29T11:28:54.175Z,1002.90
2018-04-29T11:31:36.346Z,1002.87
2018-04-29T11:32:37.246Z,1002.82
2018-04-29T11:33:36.138Z,1002.77
2018-04-29T11:34:36.156Z,1002.67
2018-04-29T11:35:35.997Z,1002.58
2018-04-29T11:38:18.326Z,1002.55
2018-04-29T11:39:18.267Z,1002.52
2018-04-29T11:40:18.203Z,1002.52
2018-04-29T11:41:18.181Z,1002.55
2018-04-29T11:42:18.027Z,1002.57
2018-04-29T11:43:17.956Z,1002.64
2018-04-29T11:44:17.845Z,1002.65
2018-04-29T11:45:17.773Z,1002.56
2018-04-29T11:46:17.683Z,1002.48
2018-04-29T11:47:17.711Z,1002.45
2018-04-29T11:48:17.546Z,1002.36
2018-04-29T11:49:17.461Z,1002.39
2018-04-29T11:50:17.383Z,1002.37
2018-04-29T11:51:17.298Z,1002.33
2018-04-29T11:52:17.257Z,1002.35
2018-04-29T11:53:17.200Z,1002.40
2018-04-29T11:54:17.079Z,1002.33
2018-04-29T11:55:17.047Z,1002.42
2018-04-29T11:56:16.929Z,1002.43
2018-04-29T11:57:16.970Z,1002.51
2018-04-29T11:58:16.779Z,1002.54
2018-04-29T11:59:16.827Z,1002.60
2018-04-29T12:00:16.602Z,1002.66
2018-04-29T12:01:16.555Z,1002.57
2018-04-29T12:02:16.472Z,1002.56
2018-04-29T12:03:16.523Z,1002.50
2018-04-29T12:04:16.328Z,1002.44
2018-04-29T12:05:16.327Z,1002.51
2018-04-29T12:06:16.155Z,1002.40
2018-04-29T12:07:16.200Z,1002.56
2018-04-29T12:08:16.011Z,1002.53
2018-04-29T12:09:16.034Z,1002.42
2018-04-29T12:10:15.854Z,1002.40
2018-04-29T12:11:15.818Z,1002.42
2018-04-29T12:12:15.733Z,1002.39
2018-04-29T12:14:57.824Z,1002.38
2018-04-29T12:17:39.803Z,1002.20
2018-04-29T12:18:39.830Z,1002.20
2018-04-29T12:19:39.758Z,1002.22
2018-04-29T12:22:21.808Z,1002.18
2018-04-29T12:23:21.843Z,1002.20
2018-04-29T12:24:21.659Z,1002.14
2018-04-29T12:25:21.696Z,1002.12
2018-04-29T12:26:21.513Z,1002.12
2018-04-29T12:27:21.575Z,1002.08
2018-04-29T12:28:21.367Z,1002.04
2018-04-29T12:29:21.283Z,1002.04
2018-04-29T12:30:21.221Z,1001.95
2018-04-29T12:31:21.132Z,1001.96
2018-04-29T12:32:21.059Z,1001.99
2018-04-29T12:33:21.001Z,1001.97
2018-04-29T12:34:20.909Z,1001.91
2018-04-29T12:35:20.951Z,1001.90
2018-04-29T12:36:20.832Z,1001.84
2018-04-29T12:37:20.800Z,1001.77
2018-04-29T12:38:20.619Z,1001.78
2018-04-29T12:39:20.620Z,1001.79
2018-04-29T12:40:20.545Z,1001.73
2018-04-29T12:43:02.321Z,1001.56
2018-04-29T12:44:02.330Z,1001.53
2018-04-29T12:45:02.187Z,1001.55
2018-04-29T12:46:02.215Z,1001.44
2018-04-29T12:47:02.015Z,1001.43
2018-04-29T12:49:44.306Z,1001.44
2018-04-29T12:50:44.372Z,1001.47
2018-04-29T12:51:44.162Z,1001.38
2018-04-29T12:52:44.140Z,1001.29
2018-04-29T12:53:44.008Z,1001.26
2018-04-29T12:54:44.056Z,1001.22
2018-04-29T12:55:43.881Z,1001.38
2018-04-29T12:58:25.833Z,1001.25
2018-04-29T12:59:25.867Z,1001.20
2018-04-29T13:00:25.697Z,1001.18
2018-04-29T13:01:25.710Z,1001.07
2018-04-29T13:02:25.547Z,1001.01
2018-04-29T13:05:07.808Z,1000.92
2018-04-29T13:06:07.835Z,1000.92
2018-04-29T13:07:07.667Z,1000.90
2018-04-29T13:08:07.719Z,1000.85
2018-04-29T13:09:07.507Z,1000.80
2018-04-29T13:10:07.509Z,1000.80
2018-04-29T13:11:07.391Z,1000.73
2018-04-29T13:12:07.313Z,1000.71
2018-04-29T13:13:07.214Z,1000.68
2018-04-29T13:14:07.217Z,1000.81
2018-04-29T13:15:07.068Z,1000.68
2018-04-29T13:16:07.074Z,1000.67
2018-04-29T13:17:06.911Z,1000.62
2018-04-29T13:18:06.940Z,1000.62
2018-04-29T13:19:06.749Z,1000.61
2018-04-29T13:20:06.753Z,1000.54
2018-04-29T13:21:06.633Z,1000.65
2018-04-29T13:22:06.620Z,1000.70
2018-04-29T13:23:06.467Z,1000.50
2018-04-29T13:24:06.473Z,1000.53
2018-04-29T13:25:06.298Z,1000.46
2018-04-29T13:26:06.295Z,1000.48
2018-04-29T13:27:06.162Z,1000.42
2018-04-29T13:28:06.202Z,1000.41
2018-04-29T13:29:06.015Z,1000.40
2018-04-29T13:30:06.017Z,1000.33
2018-04-29T13:31:05.866Z,1000.31
2018-04-29T13:32:05.845Z,1000.30
2018-04-29T13:33:05.713Z,1000.28
2018-04-29T13:34:05.711Z,1000.23
2018-04-29T13:35:05.579Z,1000.21
2018-04-29T13:36:05.521Z,1000.10
2018-04-29T13:37:05.368Z,1000.21
2018-04-29T13:38:06.420Z,1000.25
2018-04-29T13:39:05.222Z,1000.19
2018-04-29T13:40:05.241Z,1000.21
2018-04-29T13:41:05.068Z,1000.24
2018-04-29T13:42:05.109Z,1000.22
2018-04-29T13:43:04.916Z,1000.15
2018-04-29T13:44:04.960Z,1000.13
2018-04-29T13:45:04.787Z,1000.15
2018-04-29T13:46:04.802Z,1000.09
2018-04-29T13:47:04.648Z,1000.06
2018-04-29T13:48:04.581Z,1000.11
2018-04-29T13:49:04.497Z,1000.05
2018-04-29T13:51:46.854Z,1000.05
2018-04-29T13:54:28.892Z,1000.04
2018-04-29T13:55:28.792Z,1000.04
2018-04-29T13:56:28.760Z,1000.04
2018-04-29T13:59:10.908Z,999.96
2018-04-29T14:00:10.809Z,999.98
2018-04-29T14:01:10.688Z,999.88
2018-04-29T14:02:10.721Z,999.89
2018-04-29T14:03:10.546Z,999.93
2018-04-29T14:04:11.604Z,999.88
2018-04-29T14:05:10.402Z,999.93
2018-04-29T14:07:52.342Z,999.85
2018-04-29T14:10:34.451Z,999.85
2018-04-29T14:11:34.329Z,999.93
2018-04-29T14:12:34.258Z,999.97
2018-04-29T14:13:34.138Z,999.88
2018-04-29T14:14:34.043Z,999.78
2018-04-29T14:15:33.998Z,999.78
2018-04-29T14:16:33.886Z,999.86
2018-04-29T14:17:33.816Z,999.75
2018-04-29T14:18:33.728Z,999.80
2018-04-29T14:19:33.833Z,999.84
2018-04-29T14:20:33.605Z,999.85
2018-04-29T14:21:33.577Z,999.84
2018-04-29T14:22:33.440Z,999.85
2018-04-29T14:23:33.501Z,999.90
2018-04-29T14:24:33.279Z,999.90
2018-04-29T14:25:34.352Z,999.92
2018-04-29T14:26:33.131Z,999.87
2018-04-29T14:29:15.366Z,999.98
2018-04-29T14:30:15.341Z,999.91
2018-04-29T14:31:15.284Z,1000.09
2018-04-29T14:33:57.378Z,999.95
2018-04-29T14:34:57.308Z,999.91
2018-04-29T14:35:57.212Z,999.98
2018-04-29T14:36:58.185Z,999.93
2018-04-29T14:37:57.061Z,999.81
2018-04-29T14:40:39.344Z,999.86
2018-04-29T14:41:39.311Z,999.85
2018-04-29T14:42:39.212Z,999.96
2018-04-29T14:43:39.124Z,999.79
2018-04-29T14:44:39.060Z,999.82
2018-04-29T14:45:38.974Z,999.77
2018-04-29T14:46:38.935Z,999.78
2018-04-29T14:47:39.920Z,999.81
2018-04-29T14:48:38.748Z,999.82
2018-04-29T14:49:38.782Z,999.80
2018-04-29T14:50:38.594Z,999.68
2018-04-29T14:51:38.582Z,999.71
2018-04-29T14:52:38.468Z,999.71
2018-04-29T14:53:38.597Z,999.75
2018-04-29T14:54:38.292Z,999.70
2018-04-29T14:55:38.767Z,999.75
2018-04-29T14:56:38.165Z,999.74
2018-04-29T14:57:38.140Z,999.73
2018-04-29T14:58:38.011Z,999.82
2018-04-29T14:59:38.037Z,999.82
2018-04-29T15:00:37.845Z,999.79
2018-04-29T15:03:19.872Z,999.97
2018-04-29T15:04:19.835Z,999.88
2018-04-29T15:05:19.710Z,999.96
2018-04-29T15:06:19.735Z,999.88
2018-04-29T15:07:19.545Z,1000.04
2018-04-29T15:08:20.515Z,999.87
2018-04-29T15:09:19.417Z,999.86
2018-04-29T15:10:19.432Z,999.99
2018-04-29T15:11:19.245Z,1000.01
2018-04-29T15:14:01.426Z,999.90
2018-04-29T15:15:01.378Z,999.86
2018-04-29T15:16:01.282Z,999.82
2018-04-29T15:18:43.393Z,999.85
2018-04-29T15:19:43.426Z,999.76
2018-04-29T15:20:43.219Z,999.88
2018-04-29T15:23:25.424Z,999.73
2018-04-29T15:24:25.421Z,999.66
2018-04-29T15:25:25.212Z,999.62
2018-04-29T15:26:25.204Z,999.67
2018-04-29T15:27:25.073Z,999.53
2018-04-29T15:28:25.052Z,999.45
2018-04-29T15:29:24.899Z,999.47
2018-04-29T15:30:24.929Z,999.28
2018-04-29T15:31:24.761Z,999.28
2018-04-29T15:32:24.727Z,999.35
2018-04-29T15:33:24.656Z,999.30